createdAt,value
2023-03-31T00:02:13.901Z,0.48
2023-03-31T00:04:52.872Z,0.46
2023-03-31T00:07:22.233Z,0.43
2023-03-31T00:09:49.046Z,0.40
2023-03-31T00:12:16.798Z,0.35
2023-03-31T00:14:44.070Z,0.30
2023-03-31T00:17:13.297Z,0.22
2023-03-31T00:19:41.883Z,0.18
2023-03-31T00:22:08.846Z,0.14
2023-03-31T00:24:35.940Z,0.10
2023-03-31T00:27:04.060Z,0.08
2023-03-31T00:29:31.637Z,0.06
2023-03-31T00:31:59.865Z,0.05
2023-03-31T00:34:27.160Z,0.04
2023-03-31T00:36:56.806Z,0.04
2023-03-31T00:39:29.409Z,0.04
2023-03-31T00:41:56.198Z,0.04
2023-03-31T00:44:24.980Z,0.04
2023-03-31T00:46:57.130Z,0.02
2023-03-31T00:49:27.317Z,0.03
2023-03-31T00:51:55.359Z,-0.01
2023-03-31T00:54:23.548Z,-0.02
2023-03-31T00:56:53.325Z,-0.08
2023-03-31T00:59:20.856Z,-0.06
2023-03-31T01:01:50.685Z,-0.07
2023-03-31T01:04:22.928Z,-0.05
2023-03-31T01:07:25.790Z,-0.05
2023-03-31T01:09:54.395Z,-0.01
2023-03-31T01:12:22.599Z,0.01
2023-03-31T01:14:51.658Z,-0.01
2023-03-31T01:17:21.845Z,-0.01
2023-03-31T01:20:14.731Z,-0.02
2023-03-31T01:22:41.654Z,0.01
2023-03-31T01:25:28.218Z,0.00
2023-03-31T01:27:58.067Z,-0.06
2023-03-31T01:30:24.851Z,-0.10
2023-03-31T01:32:51.694Z,-0.16
2023-03-31T01:35:21.341Z,-0.20
2023-03-31T01:37:54.201Z,-0.23
2023-03-31T01:40:23.828Z,-0.21
2023-03-31T01:42:54.549Z,-0.18
2023-03-31T01:45:27.709Z,-0.11
2023-03-31T01:47:59.930Z,-0.07
2023-03-31T01:50:43.737Z,-0.04
2023-03-31T01:53:29.303Z,-0.04
2023-03-31T01:55:59.354Z,-0.08
2023-03-31T01:58:33.180Z,-0.12
2023-03-31T02:01:03.800Z,-0.16
2023-03-31T02:03:38.144Z,-0.20
2023-03-31T02:06:12.517Z,-0.24
2023-03-31T02:08:44.934Z,-0.29
2023-03-31T02:11:12.265Z,-0.32
2023-03-31T02:13:41.629Z,-0.35
2023-03-31T02:16:12.143Z,-0.36
2023-03-31T02:18:41.842Z,-0.37
2023-03-31T02:21:11.116Z,-0.38
2023-03-31T02:23:38.713Z,-0.36
2023-03-31T02:26:12.197Z,-0.35
2023-03-31T02:28:40.245Z,-0.35
2023-03-31T02:31:17.320Z,-0.37
2023-03-31T02:33:44.140Z,-0.42
2023-03-31T02:36:11.524Z,-0.47
2023-03-31T02:38:42.248Z,-0.53
2023-03-31T02:41:09.709Z,-0.59
2023-03-31T02:43:36.479Z,-0.62
2023-03-31T02:46:03.593Z,-0.65
2023-03-31T02:48:32.771Z,-0.68
2023-03-31T02:50:59.698Z,-0.72
2023-03-31T02:53:26.601Z,-0.76
2023-03-31T02:56:00.672Z,-0.79
2023-03-31T02:58:30.691Z,-0.81
2023-03-31T03:01:03.627Z,-0.83
2023-03-31T03:03:31.766Z,-0.83
2023-03-31T03:05:59.088Z,-0.82
2023-03-31T03:08:50.466Z,-0.80
2023-03-31T03:11:32.422Z,-0.79
2023-03-31T03:14:25.449Z,-0.80
2023-03-31T03:16:55.392Z,-0.79
2023-03-31T03:19:23.464Z,-0.78
2023-03-31T03:21:50.841Z,-0.74
2023-03-31T03:24:18.092Z,-0.70
2023-03-31T03:26:45.764Z,-0.69
2023-03-31T03:29:16.058Z,-0.69
2023-03-31T03:31:43.079Z,-0.68
2023-03-31T03:34:10.365Z,-0.69
2023-03-31T03:36:38.145Z,-0.69
2023-03-31T03:39:06.278Z,-0.71
2023-03-31T03:41:33.487Z,-0.72
2023-03-31T03:44:00.779Z,-0.73
2023-03-31T03:46:27.948Z,-0.73
2023-03-31T03:48:54.904Z,-0.74
2023-03-31T03:51:22.401Z,-0.76
2023-03-31T03:53:49.388Z,-0.76
2023-03-31T03:56:16.157Z,-0.77
2023-03-31T03:58:42.929Z,-0.78
2023-03-31T04:01:09.706Z,-0.77
2023-03-31T04:03:36.534Z,-0.77
2023-03-31T04:06:03.826Z,-0.75
2023-03-31T04:08:31.070Z,-0.73
2023-03-31T04:10:57.948Z,-0.71
2023-03-31T04:13:24.740Z,-0.70
2023-03-31T04:15:51.637Z,-0.70
2023-03-31T04:18:24.297Z,-0.71
2023-03-31T04:21:04.174Z,-0.70
2023-03-31T04:23:32.114Z,-0.70
2023-03-31T04:25:59.272Z,-0.71
2023-03-31T04:28:26.829Z,-0.70
2023-03-31T04:30:55.022Z,-0.66
2023-03-31T04:33:23.578Z,-0.57
2023-03-31T04:35:50.629Z,-0.47
2023-03-31T04:38:18.971Z,-0.40
2023-03-31T04:40:47.069Z,-0.34
2023-03-31T04:43:14.368Z,-0.28
2023-03-31T04:45:41.270Z,-0.21
2023-03-31T04:48:08.598Z,-0.18
2023-03-31T04:50:36.115Z,-0.17
2023-03-31T04:53:03.596Z,-0.16
2023-03-31T04:55:30.734Z,-0.15
2023-03-31T04:57:57.560Z,-0.14
2023-03-31T05:00:24.489Z,-0.11
2023-03-31T05:02:51.827Z,-0.05
2023-03-31T05:05:18.764Z,0.04
2023-03-31T05:07:46.303Z,0.10
2023-03-31T05:10:13.275Z,0.19
2023-03-31T05:12:40.272Z,0.30
2023-03-31T05:15:07.839Z,0.42
2023-03-31T05:17:35.914Z,0.54
2023-03-31T05:20:06.949Z,0.67
2023-03-31T05:22:37.347Z,0.77
2023-03-31T05:25:05.312Z,0.88
2023-03-31T05:27:32.299Z,0.95
2023-03-31T05:29:59.343Z,1.01
2023-03-31T05:32:27.535Z,1.08
2023-03-31T05:34:57.248Z,1.21
2023-03-31T05:37:25.160Z,1.35
2023-03-31T05:39:52.009Z,1.49
2023-03-31T05:42:19.304Z,1.65
2023-03-31T05:44:46.215Z,1.76
2023-03-31T05:47:13.485Z,1.89
2023-03-31T05:49:40.784Z,2.00
2023-03-31T05:52:08.294Z,2.08
2023-03-31T05:54:35.535Z,2.09
2023-03-31T05:57:02.723Z,2.06
2023-03-31T05:59:29.714Z,2.03
2023-03-31T06:01:56.932Z,2.00
2023-03-31T06:04:24.565Z,1.96
2023-03-31T06:06:51.526Z,1.91
2023-03-31T06:09:18.516Z,1.85
2023-03-31T06:11:46.151Z,1.77
2023-03-31T06:14:12.987Z,1.70
2023-03-31T06:16:39.871Z,1.63
2023-03-31T06:19:06.786Z,1.63
2023-03-31T06:21:34.111Z,1.66
2023-03-31T06:24:07.161Z,1.73
2023-03-31T06:26:33.908Z,1.76
2023-03-31T06:29:00.801Z,1.79
2023-03-31T06:31:27.599Z,1.87
2023-03-31T06:33:55.143Z,1.93
2023-03-31T06:36:25.473Z,1.97
2023-03-31T06:38:52.641Z,1.98
2023-03-31T06:41:21.127Z,1.97
2023-03-31T06:43:48.511Z,1.95
2023-03-31T06:46:16.331Z,1.97
2023-03-31T06:48:44.945Z,1.99
2023-03-31T06:51:12.010Z,1.99
2023-03-31T06:53:38.777Z,2.00
2023-03-31T06:56:15.674Z,2.05
2023-03-31T06:58:42.546Z,2.08
2023-03-31T07:01:11.577Z,2.13
2023-03-31T07:03:39.679Z,2.19
2023-03-31T07:06:06.795Z,2.24
2023-03-31T07:08:33.700Z,2.30
2023-03-31T07:11:01.499Z,2.32
2023-03-31T07:13:31.776Z,2.34
2023-03-31T07:15:58.652Z,2.34
2023-03-31T07:18:35.547Z,2.34
2023-03-31T07:21:02.884Z,2.37
2023-03-31T07:23:29.885Z,2.40
2023-03-31T07:25:58.153Z,2.41
2023-03-31T07:28:25.120Z,2.44
2023-03-31T07:30:52.057Z,2.51
2023-03-31T07:33:18.807Z,2.59
2023-03-31T07:35:47.006Z,2.72
2023-03-31T07:38:18.539Z,2.82
2023-03-31T07:40:49.080Z,2.92
2023-03-31T07:43:22.685Z,3.02
2023-03-31T07:45:49.571Z,3.07
2023-03-31T07:48:16.527Z,3.15
2023-03-31T07:50:43.368Z,3.22
2023-03-31T07:53:18.778Z,3.18
2023-03-31T07:55:47.061Z,3.16
2023-03-31T07:58:13.953Z,3.15
2023-03-31T08:00:40.922Z,3.10
2023-03-31T08:03:07.954Z,3.04
2023-03-31T08:05:34.848Z,3.03
2023-03-31T08:08:02.099Z,3.07
2023-03-31T08:10:29.003Z,3.12
2023-03-31T08:12:56.121Z,3.16
2023-03-31T08:15:23.115Z,3.20
2023-03-31T08:17:52.862Z,3.24
2023-03-31T08:20:19.763Z,3.27
2023-03-31T08:22:46.601Z,3.25
2023-03-31T08:25:13.579Z,3.26
2023-03-31T08:27:41.173Z,3.33
2023-03-31T08:30:09.308Z,3.45
2023-03-31T08:32:36.302Z,3.58
2023-03-31T08:35:03.252Z,3.69
2023-03-31T08:37:30.261Z,3.73
2023-03-31T08:39:57.066Z,3.72
2023-03-31T08:42:33.102Z,3.74
2023-03-31T08:44:59.933Z,3.80
2023-03-31T08:47:27.853Z,3.83
2023-03-31T08:49:58.923Z,3.83
2023-03-31T08:52:34.249Z,3.81
2023-03-31T08:55:04.288Z,3.89
2023-03-31T08:57:36.608Z,3.97
2023-03-31T09:00:07.349Z,4.00
2023-03-31T09:02:55.744Z,3.97
2023-03-31T09:06:00.751Z,3.87
2023-03-31T09:08:36.507Z,3.76
2023-03-31T09:11:09.132Z,3.71
2023-03-31T09:13:52.428Z,3.79
2023-03-31T09:16:32.626Z,3.92
2023-03-31T09:19:01.073Z,4.01
2023-03-31T09:21:41.066Z,4.08
2023-03-31T09:24:29.332Z,4.11
2023-03-31T09:27:00.944Z,4.12
2023-03-31T09:29:30.762Z,4.13
2023-03-31T09:32:17.343Z,4.13
2023-03-31T09:34:45.916Z,4.10
2023-03-31T09:37:13.079Z,4.11
2023-03-31T09:39:40.798Z,4.15
2023-03-31T09:42:10.046Z,4.23
2023-03-31T09:44:38.717Z,4.37
2023-03-31T09:47:11.069Z,4.49
2023-03-31T09:49:39.218Z,4.58
2023-03-31T09:52:08.300Z,4.63
2023-03-31T09:54:37.323Z,4.68
2023-03-31T09:57:13.221Z,4.73
2023-03-31T09:59:41.423Z,4.74
2023-03-31T10:02:25.185Z,4.77
2023-03-31T10:04:52.717Z,4.78
2023-03-31T10:07:23.875Z,4.76
2023-03-31T10:09:51.850Z,4.67
2023-03-31T10:12:25.216Z,4.62
2023-03-31T10:14:53.661Z,4.56
2023-03-31T10:17:24.532Z,4.53
2023-03-31T10:19:54.751Z,4.48
2023-03-31T10:22:21.724Z,4.44
2023-03-31T10:24:50.010Z,4.41
2023-03-31T10:27:27.168Z,4.42
2023-03-31T10:30:04.261Z,4.44
2023-03-31T10:32:32.823Z,4.45
2023-03-31T10:35:06.490Z,4.44
2023-03-31T10:37:35.870Z,4.47
2023-03-31T10:40:13.572Z,4.50
2023-03-31T10:42:40.594Z,4.53
2023-03-31T10:45:23.389Z,4.59
2023-03-31T10:48:01.538Z,4.66
2023-03-31T10:50:32.544Z,4.68
2023-03-31T10:53:13.471Z,4.68
2023-03-31T10:55:45.593Z,4.66
2023-03-31T10:58:21.336Z,4.66
2023-03-31T11:00:59.100Z,4.67
2023-03-31T11:03:26.033Z,4.71
2023-03-31T11:06:01.069Z,4.76
2023-03-31T11:09:06.782Z,4.81
2023-03-31T11:11:33.587Z,4.88
2023-03-31T11:14:06.487Z,4.91
2023-03-31T11:17:00.383Z,4.94
2023-03-31T11:19:30.324Z,4.98
2023-03-31T11:22:03.217Z,4.96
2023-03-31T11:25:06.366Z,4.93
2023-03-31T11:27:52.133Z,4.85
2023-03-31T11:30:20.591Z,4.79
2023-03-31T11:32:53.298Z,4.77
2023-03-31T11:35:29.154Z,4.78
2023-03-31T11:38:11.835Z,4.78
2023-03-31T11:40:43.540Z,4.81
2023-03-31T11:43:10.420Z,4.83
2023-03-31T11:45:42.473Z,4.85
2023-03-31T11:48:29.172Z,4.85
2023-03-31T11:50:57.428Z,4.87
2023-03-31T11:53:27.530Z,4.88
2023-03-31T11:55:55.947Z,4.88
2023-03-31T11:58:41.535Z,4.86
2023-03-31T12:01:14.612Z,4.86
2023-03-31T12:04:01.187Z,4.85
2023-03-31T12:06:30.630Z,4.74
2023-03-31T12:09:16.301Z,4.64
2023-03-31T12:11:50.055Z,4.53
2023-03-31T12:14:24.265Z,4.45
2023-03-31T12:17:09.797Z,4.42
2023-03-31T12:19:55.622Z,4.44
2023-03-31T12:22:24.802Z,4.47
2023-03-31T12:24:51.991Z,4.49
2023-03-31T12:27:35.871Z,4.49
2023-03-31T12:30:12.009Z,4.46
2023-03-31T12:32:51.674Z,4.45
2023-03-31T12:35:37.225Z,4.48
2023-03-31T12:38:19.664Z,4.50
2023-03-31T12:41:09.841Z,4.51
2023-03-31T12:43:48.560Z,4.49
2023-03-31T12:46:26.855Z,4.48
2023-03-31T12:48:58.928Z,4.49
2023-03-31T12:51:25.976Z,4.52
2023-03-31T12:54:14.773Z,4.54
2023-03-31T12:57:10.724Z,4.56
2023-03-31T12:59:38.545Z,4.54
2023-03-31T13:02:25.642Z,4.53
2023-03-31T13:04:53.604Z,4.56
2023-03-31T13:07:28.251Z,4.62
2023-03-31T13:09:59.675Z,4.68
2023-03-31T13:12:28.851Z,4.73
2023-03-31T13:15:01.477Z,4.76
2023-03-31T13:17:37.191Z,4.78
2023-03-31T13:20:16.731Z,4.78
2023-03-31T13:22:46.309Z,4.77
2023-03-31T13:25:32.012Z,4.75
2023-03-31T13:28:08.626Z,4.68
2023-03-31T13:30:44.431Z,4.56
2023-03-31T13:33:37.242Z,4.42
2023-03-31T13:36:22.255Z,4.31
2023-03-31T13:38:55.165Z,4.23
2023-03-31T13:41:28.554Z,4.16
2023-03-31T13:44:07.747Z,4.13
2023-03-31T13:46:34.655Z,4.09
2023-03-31T13:49:01.468Z,4.07
2023-03-31T13:51:47.416Z,4.00
2023-03-31T13:54:32.980Z,3.94
2023-03-31T13:57:27.448Z,3.89
2023-03-31T13:59:58.783Z,3.85
2023-03-31T14:02:25.773Z,3.83
2023-03-31T14:05:11.930Z,3.79
2023-03-31T14:07:42.807Z,3.73
2023-03-31T14:10:27.693Z,3.68
2023-03-31T14:13:04.780Z,3.64
2023-03-31T14:15:32.522Z,3.60
2023-03-31T14:17:59.531Z,3.53
2023-03-31T14:20:32.492Z,3.49
2023-03-31T14:23:02.348Z,3.47
2023-03-31T14:25:32.213Z,3.48
2023-03-31T14:28:21.971Z,3.50
2023-03-31T14:30:59.061Z,3.53
2023-03-31T14:33:26.289Z,3.55
2023-03-31T14:35:53.325Z,3.53
2023-03-31T14:38:21.681Z,3.51
2023-03-31T14:41:01.300Z,3.52
2023-03-31T14:43:33.894Z,3.49
2023-03-31T14:46:07.991Z,3.47
2023-03-31T14:48:43.579Z,3.45
2023-03-31T14:51:11.414Z,3.46
2023-03-31T14:53:38.499Z,3.47
2023-03-31T14:56:10.095Z,3.50
2023-03-31T14:58:39.059Z,3.52
2023-03-31T15:01:07.786Z,3.54
2023-03-31T15:03:36.636Z,3.58
2023-03-31T15:06:04.786Z,3.61
2023-03-31T15:08:32.303Z,3.61
2023-03-31T15:11:11.952Z,3.62
2023-03-31T15:14:00.626Z,3.67
2023-03-31T15:16:31.291Z,3.70
2023-03-31T15:18:59.378Z,3.74
2023-03-31T15:21:27.302Z,3.79
2023-03-31T15:23:56.966Z,3.80
2023-03-31T15:26:34.363Z,3.75
2023-03-31T15:29:11.917Z,3.71
2023-03-31T15:31:41.150Z,3.71
2023-03-31T15:34:15.928Z,3.73
2023-03-31T15:36:43.388Z,3.77
2023-03-31T15:39:11.691Z,3.81
2023-03-31T15:41:38.703Z,3.86
2023-03-31T15:44:07.520Z,3.88
2023-03-31T15:46:43.537Z,3.89
2023-03-31T15:49:20.388Z,3.89
2023-03-31T15:51:48.125Z,3.88
2023-03-31T15:54:29.249Z,3.89
2023-03-31T15:56:59.428Z,3.91
2023-03-31T16:02:17.139Z,3.89
2023-03-31T16:04:44.116Z,3.88
2023-03-31T16:07:16.853Z,3.88
2023-03-31T16:09:43.846Z,3.88
2023-03-31T16:12:34.092Z,3.91
2023-03-31T16:15:07.229Z,3.88
2023-03-31T16:17:37.333Z,3.87
2023-03-31T16:20:11.048Z,3.87
2023-03-31T16:22:44.923Z,3.86
2023-03-31T16:25:13.362Z,3.82
2023-03-31T16:27:46.893Z,3.79
2023-03-31T16:30:16.138Z,3.76
2023-03-31T16:33:02.483Z,3.74
2023-03-31T16:35:31.448Z,3.70
2023-03-31T16:37:59.047Z,3.68
2023-03-31T16:40:25.936Z,3.64
2023-03-31T16:43:06.852Z,3.61
2023-03-31T16:45:33.671Z,3.60
2023-03-31T16:48:12.717Z,3.60
2023-03-31T16:50:43.100Z,3.61
2023-03-31T16:53:10.811Z,3.63
2023-03-31T16:55:37.775Z,3.63
2023-03-31T16:58:04.746Z,3.63
2023-03-31T17:00:32.255Z,3.63
2023-03-31T17:02:59.511Z,3.59
2023-03-31T17:05:26.663Z,3.57
2023-03-31T17:07:55.791Z,3.58
2023-03-31T17:10:22.632Z,3.56
2023-03-31T17:12:49.552Z,3.55
2023-03-31T17:15:17.748Z,3.57
2023-03-31T17:17:44.691Z,3.57
2023-03-31T17:20:11.693Z,3.56
2023-03-31T17:22:38.657Z,3.56
2023-03-31T17:25:08.174Z,3.56
2023-03-31T17:27:35.207Z,3.58
2023-03-31T17:30:02.493Z,3.60
2023-03-31T17:32:30.102Z,3.59
2023-03-31T17:34:57.789Z,3.57
2023-03-31T17:37:24.776Z,3.55
2023-03-31T17:39:55.723Z,3.56
2023-03-31T17:42:22.730Z,3.56
2023-03-31T17:44:51.747Z,3.55
2023-03-31T17:47:19.282Z,3.56
2023-03-31T17:49:46.519Z,3.57
2023-03-31T17:52:13.664Z,3.58
2023-03-31T17:54:40.715Z,3.58
2023-03-31T17:57:07.852Z,3.58
2023-03-31T17:59:37.564Z,3.59
2023-03-31T18:02:06.133Z,3.59
2023-03-31T18:04:33.152Z,3.61
2023-03-31T18:07:00.513Z,3.63
2023-03-31T18:09:28.329Z,3.64
2023-03-31T18:11:55.225Z,3.66
2023-03-31T18:14:22.650Z,3.68
2023-03-31T18:16:51.317Z,3.71
2023-03-31T18:19:18.172Z,3.72
2023-03-31T18:21:44.943Z,3.73
2023-03-31T18:24:11.880Z,3.72
2023-03-31T18:26:38.667Z,3.72
2023-03-31T18:29:05.430Z,3.71
2023-03-31T18:31:32.423Z,3.71
2023-03-31T18:33:59.369Z,3.71
2023-03-31T18:36:28.640Z,3.73
2023-03-31T18:38:55.958Z,3.73
2023-03-31T18:41:24.152Z,3.72
2023-03-31T18:43:52.348Z,3.71
2023-03-31T18:46:19.851Z,3.71
2023-03-31T18:48:46.851Z,3.70
2023-03-31T18:51:14.658Z,3.71
2023-03-31T18:53:41.990Z,3.69
2023-03-31T18:56:09.517Z,3.68
2023-03-31T18:58:37.382Z,3.69
2023-03-31T19:01:04.486Z,3.68
2023-03-31T19:03:31.642Z,3.68
2023-03-31T19:06:05.705Z,3.70
2023-03-31T19:08:32.571Z,3.70
2023-03-31T19:11:12.896Z,3.69
2023-03-31T19:13:42.209Z,3.69
2023-03-31T19:16:13.421Z,3.69
2023-03-31T19:18:42.655Z,3.69
2023-03-31T19:21:09.784Z,3.67
2023-03-31T19:23:36.674Z,3.67
2023-03-31T19:26:03.971Z,3.65
2023-03-31T19:28:33.941Z,3.64
2023-03-31T19:31:02.927Z,3.63
2023-03-31T19:33:29.662Z,3.61
2023-03-31T19:35:56.623Z,3.61
2023-03-31T19:38:25.656Z,3.60
2023-03-31T19:40:57.732Z,3.58
2023-03-31T19:43:25.101Z,3.57
2023-03-31T19:45:57.683Z,3.59
2023-03-31T19:48:26.680Z,3.58
2023-03-31T19:50:54.815Z,3.57
2023-03-31T19:53:22.222Z,3.55
2023-03-31T19:55:56.547Z,3.55
2023-03-31T19:58:23.451Z,3.56
2023-03-31T20:00:53.774Z,3.55
2023-03-31T20:03:21.563Z,3.52
2023-03-31T20:05:48.477Z,3.54
2023-03-31T20:08:15.390Z,3.53
2023-03-31T20:10:44.375Z,3.57
2023-03-31T20:13:11.422Z,3.56
2023-03-31T20:15:40.425Z,3.56
2023-03-31T20:18:08.577Z,3.56
2023-03-31T20:20:35.661Z,3.52
2023-03-31T20:23:04.005Z,3.49
2023-03-31T20:25:31.152Z,3.49
2023-03-31T20:27:58.224Z,3.47
2023-03-31T20:30:25.088Z,3.48
2023-03-31T20:32:51.978Z,3.49
2023-03-31T20:35:19.067Z,3.48
2023-03-31T20:37:45.862Z,3.48
2023-03-31T20:40:12.691Z,3.47
2023-03-31T20:42:39.504Z,3.45
2023-03-31T20:45:07.056Z,3.44
2023-03-31T20:47:35.415Z,3.45
2023-03-31T20:50:02.748Z,3.45
2023-03-31T20:52:29.608Z,3.45
2023-03-31T20:54:56.621Z,3.42
2023-03-31T20:57:25.720Z,3.42
2023-03-31T20:59:52.595Z,3.40
2023-03-31T21:02:19.709Z,3.38
2023-03-31T21:04:47.272Z,3.38
2023-03-31T21:07:15.281Z,3.39
2023-03-31T21:09:42.238Z,3.39
2023-03-31T21:12:09.073Z,3.40
2023-03-31T21:14:35.912Z,3.40
2023-03-31T21:17:03.067Z,3.39
2023-03-31T21:19:29.986Z,3.40
2023-03-31T21:21:56.893Z,3.40
2023-03-31T21:24:23.922Z,3.39
2023-03-31T21:26:50.835Z,3.36
2023-03-31T21:29:17.613Z,3.36
2023-03-31T21:31:46.110Z,3.35
2023-03-31T21:34:12.931Z,3.34
2023-03-31T21:36:39.924Z,3.34
2023-03-31T21:39:06.769Z,3.33
2023-03-31T21:41:33.896Z,3.34
2023-03-31T21:44:02.709Z,3.32
2023-03-31T21:46:31.088Z,3.31
2023-03-31T21:48:58.121Z,3.31
2023-03-31T21:51:25.822Z,3.28
2023-03-31T21:53:56.093Z,3.27
2023-03-31T21:56:24.021Z,3.25
2023-03-31T21:58:51.191Z,3.26
2023-03-31T22:01:18.696Z,3.28
2023-03-31T22:03:46.044Z,3.29
2023-03-31T22:06:12.896Z,3.27
2023-03-31T22:08:39.825Z,3.26
2023-03-31T22:11:08.416Z,3.28
2023-03-31T22:13:35.980Z,3.24
2023-03-31T22:16:03.204Z,3.21
2023-03-31T22:18:30.669Z,3.19
2023-03-31T22:20:57.649Z,3.18
2023-03-31T22:23:24.644Z,3.18
2023-03-31T22:25:51.440Z,3.17
2023-03-31T22:28:18.406Z,3.16
2023-03-31T22:30:45.330Z,3.16
2023-03-31T22:33:12.842Z,3.16
2023-03-31T22:35:39.791Z,3.16
2023-03-31T22:38:08.549Z,3.17
2023-03-31T22:40:36.037Z,3.17
2023-03-31T22:43:03.097Z,3.18
2023-03-31T22:45:29.888Z,3.17
2023-03-31T22:47:57.155Z,3.16
2023-03-31T22:50:24.246Z,3.14
2023-03-31T22:52:52.154Z,3.13
2023-03-31T22:55:19.199Z,3.10
2023-03-31T22:57:46.314Z,3.11
2023-03-31T23:00:13.904Z,3.10
2023-03-31T23:02:41.345Z,3.10
2023-03-31T23:05:08.401Z,3.08
2023-03-31T23:07:35.274Z,3.06
2023-03-31T23:10:02.394Z,3.07
2023-03-31T23:12:29.868Z,3.07
2023-03-31T23:14:56.674Z,3.06
2023-03-31T23:17:23.727Z,3.06
2023-03-31T23:19:51.370Z,3.05
2023-03-31T23:22:19.015Z,3.04
2023-03-31T23:24:48.433Z,3.02
2023-03-31T23:27:15.263Z,2.99
2023-03-31T23:29:42.420Z,2.95
2023-03-31T23:32:09.920Z,2.90
2023-03-31T23:34:41.608Z,2.89
2023-03-31T23:37:09.608Z,2.90
2023-03-31T23:39:38.892Z,2.93
2023-03-31T23:42:06.488Z,2.95
2023-03-31T23:44:33.480Z,2.93
2023-03-31T23:47:00.283Z,2.91
2023-03-31T23:49:27.205Z,2.87
2023-03-31T23:51:54.352Z,2.85
2023-03-31T23:54:21.269Z,2.85
2023-03-31T23:56:48.628Z,2.85
2023-03-31T23:59:16.298Z,2.84
